Terminal Aerodrome Forecast
Issued by NWS

Home | Current Version | Previous Version | Text Only | Print | Product List | Glossary Off
Versions: 1 2 3 4 5 6 7 8 9 10 11 12 13

000
FTUS45 KGGW 220520
TAFSDY
TAF
KSDY 220520Z 2206/2306 26004KT P6SM SKC
     FM221400 21008KT P6SM BKN100
     FM221600 23013KT P6SM OVC080
     FM221800 24019G27KT P6SM BKN060
     FM230000 28020G28KT P6SM VCSH BKN090
     FM230300 28017G32KT P6SM SCT100 WS020/29045KT=

USA.gov is the U.S. government's official web portal to all federal, state and local government web resources and services.